ENFL/FRO METAR and TAF weather

Enter ICAO airport designator
Station Type Date Time Source
ENFL METAR 2020/07/12 07:20 UTC NOAA

ENFL 120720Z 17017KT 9000 -SHRA SCT007 BKN015 10/09 Q1016


Station Type Date Time Source
ENFL Decoded METAR 2020/07/12 07:20 UTC NOAA

Floro, Norway (ENFL) 61-35N 005-02E 9M
Jul 12, 2020 - 03:20 AM EDT / 2020.07.12 0720 UTC
Wind: from the S (170 degrees) at 20 MPH (17 KT):0
Visibility: 5 mile(s):0
Sky conditions: mostly cloudy
Weather: light rain showers
Temperature: 50 F (10 C)
Dew Point: 48 F (9 C)
Relative Humidity: 93%
Pressure (altimeter): 30.00 in. Hg (1016 hPa)
ob: ENFL 120720Z 17017KT 9000 -SHRA SCT007 BKN015 10/09 Q1016
cycle: 7

Station Type Date Time Source
ENFL TAF 2010/02/05 07:50 UTC NOAA

METAR ENFL 050750Z 16019KT 140V200 9999 FEW015 SCT030 BKN055 03/M03 Q1011

Example: see airport list